sensor_id;sensor_type;location;lat;lon;timestamp;P1;durP1;ratioP1;P2;durP2;ratioP2
19836;SDS011;10079;55.740;37.662;2023-08-06T00:00:03;10.47;;;6.87;;
19836;SDS011;10079;55.740;37.662;2023-08-06T00:02:46;8.93;;;6.80;;
19836;SDS011;10079;55.740;37.662;2023-08-06T00:05:27;8.87;;;6.73;;
19836;SDS011;10079;55.740;37.662;2023-08-06T00:08:08;8.43;;;6.27;;
19836;SDS011;10079;55.740;37.662;2023-08-06T00:10:49;10.27;;;6.53;;
19836;SDS011;10079;55.740;37.662;2023-08-06T00:13:30;9.50;;;6.17;;
19836;SDS011;10079;55.740;37.662;2023-08-06T00:16:11;8.93;;;6.73;;
19836;SDS011;10079;55.740;37.662;2023-08-06T00:19:04;9.83;;;7.13;;
19836;SDS011;10079;55.740;37.662;2023-08-06T00:21:48;10.57;;;7.53;;
19836;SDS011;10079;55.740;37.662;2023-08-06T00:24:28;9.40;;;6.53;;
19836;SDS011;10079;55.740;37.662;2023-08-06T00:27:09;10.47;;;6.37;;
19836;SDS011;10079;55.740;37.662;2023-08-06T00:29:50;10.07;;;7.20;;
19836;SDS011;10079;55.740;37.662;2023-08-06T00:32:31;6.43;;;5.73;;
19836;SDS011;10079;55.740;37.662;2023-08-06T00:35:11;9.93;;;7.20;;
19836;SDS011;10079;55.740;37.662;2023-08-06T00:48:30;7.30;;;5.60;;
19836;SDS011;10079;55.740;37.662;2023-08-06T01:02:00;6.37;;;5.18;;
19836;SDS011;10079;55.740;37.662;2023-08-06T01:15:26;11.48;;;6.25;;
19836;SDS011;10079;55.740;37.662;2023-08-06T01:18:09;6.45;;;5.80;;
19836;SDS011;10079;55.740;37.662;2023-08-06T01:31:32;7.32;;;6.05;;
19836;SDS011;10079;55.740;37.662;2023-08-06T01:34:15;7.27;;;6.27;;
19836;SDS011;10079;55.740;37.662;2023-08-06T01:36:58;9.68;;;6.53;;
19836;SDS011;10079;55.740;37.662;2023-08-06T01:39:39;13.63;;;6.50;;
19836;SDS011;10079;55.740;37.662;2023-08-06T01:42:20;7.77;;;6.30;;
19836;SDS011;10079;55.740;37.662;2023-08-06T01:45:12;7.87;;;6.47;;
19836;SDS011;10079;55.740;37.662;2023-08-06T01:47:53;8.07;;;6.50;;
19836;SDS011;10079;55.740;37.662;2023-08-06T01:50:37;10.73;;;6.57;;
19836;SDS011;10079;55.740;37.662;2023-08-06T01:53:32;8.83;;;6.63;;
19836;SDS011;10079;55.740;37.662;2023-08-06T01:56:18;8.03;;;6.07;;
19836;SDS011;10079;55.740;37.662;2023-08-06T01:59:11;9.23;;;7.10;;
19836;SDS011;10079;55.740;37.662;2023-08-06T02:01:53;9.53;;;7.07;;
19836;SDS011;10079;55.740;37.662;2023-08-06T02:04:35;10.13;;;7.00;;
19836;SDS011;10079;55.740;37.662;2023-08-06T02:07:17;9.53;;;7.50;;
19836;SDS011;10079;55.740;37.662;2023-08-06T02:10:07;8.73;;;6.83;;
19836;SDS011;10079;55.740;37.662;2023-08-06T02:12:48;10.43;;;7.30;;
19836;SDS011;10079;55.740;37.662;2023-08-06T02:15:33;8.47;;;7.37;;
19836;SDS011;10079;55.740;37.662;2023-08-06T02:18:17;11.80;;;8.00;;
19836;SDS011;10079;55.740;37.662;2023-08-06T02:20:58;12.53;;;8.00;;
19836;SDS011;10079;55.740;37.662;2023-08-06T02:23:38;9.60;;;7.13;;
19836;SDS011;10079;55.740;37.662;2023-08-06T02:26:19;9.83;;;7.73;;
19836;SDS011;10079;55.740;37.662;2023-08-06T02:28:59;12.30;;;8.33;;
19836;SDS011;10079;55.740;37.662;2023-08-06T02:31:40;10.77;;;7.43;;
19836;SDS011;10079;55.740;37.662;2023-08-06T02:34:21;12.90;;;8.20;;
19836;SDS011;10079;55.740;37.662;2023-08-06T02:37:02;11.23;;;7.40;;
19836;SDS011;10079;55.740;37.662;2023-08-06T02:39:43;12.63;;;8.17;;
19836;SDS011;10079;55.740;37.662;2023-08-06T02:42:23;10.37;;;7.70;;
19836;SDS011;10079;55.740;37.662;2023-08-06T02:45:04;9.17;;;7.10;;
19836;SDS011;10079;55.740;37.662;2023-08-06T02:47:47;10.37;;;7.57;;
19836;SDS011;10079;55.740;37.662;2023-08-06T02:50:40;10.23;;;7.57;;
19836;SDS011;10079;55.740;37.662;2023-08-06T02:53:20;11.53;;;7.90;;
19836;SDS011;10079;55.740;37.662;2023-08-06T03:17:02;10.85;;;8.63;;
19836;SDS011;10079;55.740;37.662;2023-08-06T03:19:45;10.57;;;8.57;;
19836;SDS011;10079;55.740;37.662;2023-08-06T03:22:38;12.95;;;8.15;;
19836;SDS011;10079;55.740;37.662;2023-08-06T03:46:25;11.73;;;8.40;;
19836;SDS011;10079;55.740;37.662;2023-08-06T03:49:14;11.85;;;7.93;;
19836;SDS011;10079;55.740;37.662;2023-08-06T03:51:55;10.23;;;8.00;;
19836;SDS011;10079;55.740;37.662;2023-08-06T03:54:39;10.15;;;7.82;;
19836;SDS011;10079;55.740;37.662;2023-08-06T03:57:20;12.90;;;8.13;;
19836;SDS011;10079;55.740;37.662;2023-08-06T04:00:12;12.55;;;8.13;;
19836;SDS011;10079;55.740;37.662;2023-08-06T04:02:53;9.88;;;7.57;;
19836;SDS011;10079;55.740;37.662;2023-08-06T04:05:37;8.65;;;7.43;;
19836;SDS011;10079;55.740;37.662;2023-08-06T04:08:18;11.12;;;7.87;;
19836;SDS011;10079;55.740;37.662;2023-08-06T04:10:58;14.52;;;8.05;;
19836;SDS011;10079;55.740;37.662;2023-08-06T04:24:14;12.00;;;8.23;;
19836;SDS011;10079;55.740;37.662;2023-08-06T04:26:54;11.23;;;7.87;;
19836;SDS011;10079;55.740;37.662;2023-08-06T04:50:48;10.70;;;8.35;;
19836;SDS011;10079;55.740;37.662;2023-08-06T04:53:29;12.82;;;7.87;;
19836;SDS011;10079;55.740;37.662;2023-08-06T04:56:13;12.90;;;7.75;;
19836;SDS011;10079;55.740;37.662;2023-08-06T04:58:57;11.52;;;7.68;;
19836;SDS011;10079;55.740;37.662;2023-08-06T05:01:41;14.15;;;8.43;;
19836;SDS011;10079;55.740;37.662;2023-08-06T05:04:22;11.60;;;7.70;;
19836;SDS011;10079;55.740;37.662;2023-08-06T05:07:03;12.18;;;7.90;;
19836;SDS011;10079;55.740;37.662;2023-08-06T05:09:44;15.45;;;8.13;;
19836;SDS011;10079;55.740;37.662;2023-08-06T05:12:24;14.25;;;8.02;;
19836;SDS011;10079;55.740;37.662;2023-08-06T05:15:06;11.63;;;7.82;;
19836;SDS011;10079;55.740;37.662;2023-08-06T05:17:48;12.60;;;8.95;;
19836;SDS011;10079;55.740;37.662;2023-08-06T05:20:28;10.90;;;8.40;;
19836;SDS011;10079;55.740;37.662;2023-08-06T05:23:21;11.90;;;8.88;;
19836;SDS011;10079;55.740;37.662;2023-08-06T05:26:01;12.55;;;8.20;;
19836;SDS011;10079;55.740;37.662;2023-08-06T05:28:42;14.23;;;8.20;;
19836;SDS011;10079;55.740;37.662;2023-08-06T05:31:23;9.82;;;7.53;;
19836;SDS011;10079;55.740;37.662;2023-08-06T05:34:15;9.07;;;7.37;;
19836;SDS011;10079;55.740;37.662;2023-08-06T05:36:56;13.10;;;7.97;;
19836;SDS011;10079;55.740;37.662;2023-08-06T05:39:37;14.52;;;8.40;;
19836;SDS011;10079;55.740;37.662;2023-08-06T05:42:19;16.17;;;8.20;;
19836;SDS011;10079;55.740;37.662;2023-08-06T05:45:04;13.52;;;7.45;;
19836;SDS011;10079;55.740;37.662;2023-08-06T05:47:47;15.32;;;7.15;;
19836;SDS011;10079;55.740;37.662;2023-08-06T05:50:26;10.50;;;7.93;;
19836;SDS011;10079;55.740;37.662;2023-08-06T05:53:07;9.98;;;6.85;;
19836;SDS011;10079;55.740;37.662;2023-08-06T05:55:47;14.73;;;8.13;;
19836;SDS011;10079;55.740;37.662;2023-08-06T05:58:28;14.07;;;7.22;;
19836;SDS011;10079;55.740;37.662;2023-08-06T06:01:09;11.02;;;6.93;;
19836;SDS011;10079;55.740;37.662;2023-08-06T06:03:49;10.55;;;7.07;;
19836;SDS011;10079;55.740;37.662;2023-08-06T06:06:34;13.75;;;7.15;;
19836;SDS011;10079;55.740;37.662;2023-08-06T06:09:14;11.18;;;7.25;;
19836;SDS011;10079;55.740;37.662;2023-08-06T06:11:55;13.73;;;6.40;;
19836;SDS011;10079;55.740;37.662;2023-08-06T06:14:39;10.77;;;6.85;;
19836;SDS011;10079;55.740;37.662;2023-08-06T06:28:14;12.65;;;6.50;;
19836;SDS011;10079;55.740;37.662;2023-08-06T06:30:59;11.02;;;7.37;;
19836;SDS011;10079;55.740;37.662;2023-08-06T06:33:38;9.35;;;6.82;;
19836;SDS011;10079;55.740;37.662;2023-08-06T06:36:23;9.55;;;6.97;;
19836;SDS011;10079;55.740;37.662;2023-08-06T06:49:39;8.65;;;6.55;;
19836;SDS011;10079;55.740;37.662;2023-08-06T06:52:21;11.77;;;6.87;;
19836;SDS011;10079;55.740;37.662;2023-08-06T07:05:36;10.27;;;6.95;;
19836;SDS011;10079;55.740;37.662;2023-08-06T07:08:20;9.43;;;6.07;;
19836;SDS011;10079;55.740;37.662;2023-08-06T07:11:05;8.52;;;5.80;;
19836;SDS011;10079;55.740;37.662;2023-08-06T07:13:56;7.22;;;6.00;;
19836;SDS011;10079;55.740;37.662;2023-08-06T07:16:36;6.32;;;5.35;;
19836;SDS011;10079;55.740;37.662;2023-08-06T07:29:53;9.20;;;6.50;;
19836;SDS011;10079;55.740;37.662;2023-08-06T07:32:34;7.82;;;6.47;;
19836;SDS011;10079;55.740;37.662;2023-08-06T07:35:18;9.98;;;6.50;;
19836;SDS011;10079;55.740;37.662;2023-08-06T07:38:11;8.00;;;6.85;;
19836;SDS011;10079;55.740;37.662;2023-08-06T07:40:55;6.97;;;6.00;;
19836;SDS011;10079;55.740;37.662;2023-08-06T07:43:47;7.78;;;5.50;;
19836;SDS011;10079;55.740;37.662;2023-08-06T07:46:28;9.48;;;5.85;;
19836;SDS011;10079;55.740;37.662;2023-08-06T07:49:09;9.25;;;6.97;;
19836;SDS011;10079;55.740;37.662;2023-08-06T07:51:53;6.45;;;5.53;;
19836;SDS011;10079;55.740;37.662;2023-08-06T07:54:34;7.82;;;6.12;;
19836;SDS011;10079;55.740;37.662;2023-08-06T07:57:14;8.52;;;5.80;;
19836;SDS011;10079;55.740;37.662;2023-08-06T07:59:55;10.60;;;6.65;;
19836;SDS011;10079;55.740;37.662;2023-08-06T08:02:48;8.70;;;6.53;;
19836;SDS011;10079;55.740;37.662;2023-08-06T08:05:29;11.75;;;6.32;;
19836;SDS011;10079;55.740;37.662;2023-08-06T08:08:09;9.38;;;5.53;;
19836;SDS011;10079;55.740;37.662;2023-08-06T08:11:02;7.65;;;5.93;;
19836;SDS011;10079;55.740;37.662;2023-08-06T08:13:43;5.87;;;5.28;;
19836;SDS011;10079;55.740;37.662;2023-08-06T08:16:27;10.98;;;5.07;;
19836;SDS011;10079;55.740;37.662;2023-08-06T08:19:08;5.97;;;5.32;;
19836;SDS011;10079;55.740;37.662;2023-08-06T08:21:49;8.27;;;5.95;;
19836;SDS011;10079;55.740;37.662;2023-08-06T08:24:29;6.18;;;5.15;;
19836;SDS011;10079;55.740;37.662;2023-08-06T08:27:11;5.50;;;4.93;;
19836;SDS011;10079;55.740;37.662;2023-08-06T08:29:51;5.45;;;4.78;;
19836;SDS011;10079;55.740;37.662;2023-08-06T08:32:32;5.18;;;4.32;;
19836;SDS011;10079;55.740;37.662;2023-08-06T08:35:13;6.28;;;4.57;;
19836;SDS011;10079;55.740;37.662;2023-08-06T08:37:57;6.18;;;4.60;;
19836;SDS011;10079;55.740;37.662;2023-08-06T08:40:39;5.70;;;5.20;;
19836;SDS011;10079;55.740;37.662;2023-08-06T08:43:19;5.37;;;4.97;;
19836;SDS011;10079;55.740;37.662;2023-08-06T08:46:00;6.53;;;4.60;;
19836;SDS011;10079;55.740;37.662;2023-08-06T08:48:44;6.57;;;5.32;;
19836;SDS011;10079;55.740;37.662;2023-08-06T08:51:37;8.10;;;5.40;;
19836;SDS011;10079;55.740;37.662;2023-08-06T08:54:22;8.27;;;5.70;;
19836;SDS011;10079;55.740;37.662;2023-08-06T08:57:05;6.32;;;5.10;;
19836;SDS011;10079;55.740;37.662;2023-08-06T08:59:58;5.78;;;5.12;;
19836;SDS011;10079;55.740;37.662;2023-08-06T09:02:51;6.57;;;5.25;;
19836;SDS011;10079;55.740;37.662;2023-08-06T09:05:32;6.78;;;5.50;;
19836;SDS011;10079;55.740;37.662;2023-08-06T09:08:15;6.28;;;5.68;;
19836;SDS011;10079;55.740;37.662;2023-08-06T09:11:06;6.20;;;4.87;;
19836;SDS011;10079;55.740;37.662;2023-08-06T09:13:58;5.78;;;5.15;;
19836;SDS011;10079;55.740;37.662;2023-08-06T09:16:39;6.15;;;5.47;;
19836;SDS011;10079;55.740;37.662;2023-08-06T09:19:20;8.35;;;6.65;;
19836;SDS011;10079;55.740;37.662;2023-08-06T09:22:00;5.65;;;5.07;;
19836;SDS011;10079;55.740;37.662;2023-08-06T09:24:42;6.72;;;5.20;;
19836;SDS011;10079;55.740;37.662;2023-08-06T09:27:26;6.53;;;5.15;;
19836;SDS011;10079;55.740;37.662;2023-08-06T09:30:07;5.55;;;4.75;;
19836;SDS011;10079;55.740;37.662;2023-08-06T09:32:48;6.18;;;4.97;;
19836;SDS011;10079;55.740;37.662;2023-08-06T09:35:32;9.32;;;5.25;;
19836;SDS011;10079;55.740;37.662;2023-08-06T09:38:13;10.88;;;6.03;;
19836;SDS011;10079;55.740;37.662;2023-08-06T09:40:58;5.65;;;5.20;;
19836;SDS011;10079;55.740;37.662;2023-08-06T09:43:42;6.40;;;5.62;;
19836;SDS011;10079;55.740;37.662;2023-08-06T09:46:23;5.87;;;5.37;;
19836;SDS011;10079;55.740;37.662;2023-08-06T09:49:12;6.45;;;5.47;;
19836;SDS011;10079;55.740;37.662;2023-08-06T10:02:27;5.40;;;4.82;;
19836;SDS011;10079;55.740;37.662;2023-08-06T10:05:08;6.65;;;5.55;;
19836;SDS011;10079;55.740;37.662;2023-08-06T10:10:43;6.00;;;5.40;;
19836;SDS011;10079;55.740;37.662;2023-08-06T10:13:27;5.80;;;5.25;;
19836;SDS011;10079;55.740;37.662;2023-08-06T10:16:11;5.85;;;5.35;;
19836;SDS011;10079;55.740;37.662;2023-08-06T10:18:56;6.47;;;5.57;;
19836;SDS011;10079;55.740;37.662;2023-08-06T10:21:38;5.82;;;5.32;;
19836;SDS011;10079;55.740;37.662;2023-08-06T10:24:19;5.57;;;5.10;;
19836;SDS011;10079;55.740;37.662;2023-08-06T10:27:00;7.53;;;5.78;;
19836;SDS011;10079;55.740;37.662;2023-08-06T10:29:40;6.18;;;5.20;;
19836;SDS011;10079;55.740;37.662;2023-08-06T10:32:46;6.82;;;6.10;;
19836;SDS011;10079;55.740;37.662;2023-08-06T10:35:30;6.10;;;5.50;;
19836;SDS011;10079;55.740;37.662;2023-08-06T10:38:15;6.12;;;5.53;;
19836;SDS011;10079;55.740;37.662;2023-08-06T10:41:01;6.65;;;5.45;;
19836;SDS011;10079;55.740;37.662;2023-08-06T10:43:42;7.05;;;5.97;;
19836;SDS011;10079;55.740;37.662;2023-08-06T10:46:26;6.28;;;5.55;;
19836;SDS011;10079;55.740;37.662;2023-08-06T10:49:08;8.43;;;5.30;;
19836;SDS011;10079;55.740;37.662;2023-08-06T10:52:00;5.90;;;5.40;;
19836;SDS011;10079;55.740;37.662;2023-08-06T10:54:54;6.50;;;5.68;;
19836;SDS011;10079;55.740;37.662;2023-08-06T10:57:37;6.55;;;5.45;;
19836;SDS011;10079;55.740;37.662;2023-08-06T11:00:22;6.10;;;5.50;;
19836;SDS011;10079;55.740;37.662;2023-08-06T11:03:03;9.15;;;5.25;;
19836;SDS011;10079;55.740;37.662;2023-08-06T11:05:49;6.47;;;5.40;;
19836;SDS011;10079;55.740;37.662;2023-08-06T11:19:07;6.10;;;5.50;;
19836;SDS011;10079;55.740;37.662;2023-08-06T11:21:46;10.57;;;5.22;;
19836;SDS011;10079;55.740;37.662;2023-08-06T11:24:26;10.20;;;5.75;;
19836;SDS011;10079;55.740;37.662;2023-08-06T11:27:12;6.03;;;5.50;;
19836;SDS011;10079;55.740;37.662;2023-08-06T11:30:03;6.45;;;5.40;;
19836;SDS011;10079;55.740;37.662;2023-08-06T11:32:48;6.12;;;5.45;;
19836;SDS011;10079;55.740;37.662;2023-08-06T11:35:29;9.50;;;5.55;;
19836;SDS011;10079;55.740;37.662;2023-08-06T11:38:21;5.87;;;5.28;;
19836;SDS011;10079;55.740;37.662;2023-08-06T11:41:02;6.00;;;5.40;;
19836;SDS011;10079;55.740;37.662;2023-08-06T11:43:52;6.18;;;5.60;;
19836;SDS011;10079;55.740;37.662;2023-08-06T11:46:49;6.68;;;5.97;;
19836;SDS011;10079;55.740;37.662;2023-08-06T11:49:37;6.93;;;6.12;;
19836;SDS011;10079;55.740;37.662;2023-08-06T11:52:22;6.03;;;5.32;;
19836;SDS011;10079;55.740;37.662;2023-08-06T11:55:06;6.12;;;5.43;;
19836;SDS011;10079;55.740;37.662;2023-08-06T11:57:51;6.85;;;5.90;;
19836;SDS011;10079;55.740;37.662;2023-08-06T12:00:44;6.03;;;5.47;;
19836;SDS011;10079;55.740;37.662;2023-08-06T12:03:39;6.18;;;5.40;;
19836;SDS011;10079;55.740;37.662;2023-08-06T12:06:27;6.82;;;5.22;;
19836;SDS011;10079;55.740;37.662;2023-08-06T12:09:20;5.80;;;5.10;;
19836;SDS011;10079;55.740;37.662;2023-08-06T12:12:04;6.57;;;5.32;;
19836;SDS011;10079;55.740;37.662;2023-08-06T12:14:46;6.07;;;5.47;;
19836;SDS011;10079;55.740;37.662;2023-08-06T12:17:26;7.37;;;5.60;;
19836;SDS011;10079;55.740;37.662;2023-08-06T12:20:19;8.65;;;6.00;;
19836;SDS011;10079;55.740;37.662;2023-08-06T12:23:03;5.95;;;5.10;;
19836;SDS011;10079;55.740;37.662;2023-08-06T12:25:44;5.95;;;5.28;;
19836;SDS011;10079;55.740;37.662;2023-08-06T12:28:25;6.55;;;5.55;;
19836;SDS011;10079;55.740;37.662;2023-08-06T12:41:36;6.03;;;5.43;;
19836;SDS011;10079;55.740;37.662;2023-08-06T12:44:16;7.10;;;5.50;;
19836;SDS011;10079;55.740;37.662;2023-08-06T12:46:57;7.53;;;4.90;;
19836;SDS011;10079;55.740;37.662;2023-08-06T12:49:41;5.72;;;5.10;;
19836;SDS011;10079;55.740;37.662;2023-08-06T12:52:22;6.20;;;5.55;;
19836;SDS011;10079;55.740;37.662;2023-08-06T12:55:03;7.12;;;5.40;;
19836;SDS011;10079;55.740;37.662;2023-08-06T12:57:44;5.35;;;4.87;;
19836;SDS011;10079;55.740;37.662;2023-08-06T13:00:26;5.25;;;4.65;;
19836;SDS011;10079;55.740;37.662;2023-08-06T13:03:10;7.62;;;5.30;;
19836;SDS011;10079;55.740;37.662;2023-08-06T13:05:51;6.07;;;5.30;;
19836;SDS011;10079;55.740;37.662;2023-08-06T13:08:32;6.40;;;4.80;;
19836;SDS011;10079;55.740;37.662;2023-08-06T13:11:24;6.87;;;5.10;;
19836;SDS011;10079;55.740;37.662;2023-08-06T13:14:17;6.25;;;4.72;;
19836;SDS011;10079;55.740;37.662;2023-08-06T13:17:06;6.00;;;5.40;;
19836;SDS011;10079;55.740;37.662;2023-08-06T13:19:47;7.00;;;6.30;;
19836;SDS011;10079;55.740;37.662;2023-08-06T13:22:31;5.87;;;5.22;;
19836;SDS011;10079;55.740;37.662;2023-08-06T13:25:15;7.37;;;5.82;;
19836;SDS011;10079;55.740;37.662;2023-08-06T13:27:56;6.50;;;5.90;;
19836;SDS011;10079;55.740;37.662;2023-08-06T13:30:36;5.85;;;5.30;;
19836;SDS011;10079;55.740;37.662;2023-08-06T13:44:00;6.72;;;5.22;;
19836;SDS011;10079;55.740;37.662;2023-08-06T13:46:53;8.15;;;5.47;;
19836;SDS011;10079;55.740;37.662;2023-08-06T13:49:33;5.95;;;5.20;;
19836;SDS011;10079;55.740;37.662;2023-08-06T13:52:14;5.60;;;5.15;;
19836;SDS011;10079;55.740;37.662;2023-08-06T13:54:58;5.68;;;5.10;;
19836;SDS011;10079;55.740;37.662;2023-08-06T13:57:41;7.03;;;5.78;;
19836;SDS011;10079;55.740;37.662;2023-08-06T14:00:21;6.12;;;5.50;;
19836;SDS011;10079;55.740;37.662;2023-08-06T14:03:02;6.18;;;5.50;;
19836;SDS011;10079;55.740;37.662;2023-08-06T14:05:48;6.18;;;5.57;;
19836;SDS011;10079;55.740;37.662;2023-08-06T14:08:28;9.73;;;6.05;;
19836;SDS011;10079;55.740;37.662;2023-08-06T14:11:09;7.28;;;5.85;;
19836;SDS011;10079;55.740;37.662;2023-08-06T14:13:50;8.70;;;6.05;;
19836;SDS011;10079;55.740;37.662;2023-08-06T14:16:34;7.05;;;5.97;;
19836;SDS011;10079;55.740;37.662;2023-08-06T14:19:18;6.65;;;5.93;;
19836;SDS011;10079;55.740;37.662;2023-08-06T14:22:02;7.45;;;5.82;;
19836;SDS011;10079;55.740;37.662;2023-08-06T14:24:51;9.00;;;6.65;;
19836;SDS011;10079;55.740;37.662;2023-08-06T14:27:35;6.95;;;6.25;;
19836;SDS011;10079;55.740;37.662;2023-08-06T14:30:19;6.68;;;6.07;;
19836;SDS011;10079;55.740;37.662;2023-08-06T14:33:00;9.98;;;7.00;;
19836;SDS011;10079;55.740;37.662;2023-08-06T14:35:44;8.65;;;6.25;;
19836;SDS011;10079;55.740;37.662;2023-08-06T14:38:33;7.93;;;6.28;;
19836;SDS011;10079;55.740;37.662;2023-08-06T14:41:17;10.02;;;6.25;;
19836;SDS011;10079;55.740;37.662;2023-08-06T14:44:10;8.70;;;6.28;;
19836;SDS011;10079;55.740;37.662;2023-08-06T14:46:59;7.93;;;6.28;;
19836;SDS011;10079;55.740;37.662;2023-08-06T14:49:43;7.62;;;5.72;;
19836;SDS011;10079;55.740;37.662;2023-08-06T14:52:24;8.05;;;5.55;;
19836;SDS011;10079;55.740;37.662;2023-08-06T14:55:05;8.63;;;6.90;;
19836;SDS011;10079;55.740;37.662;2023-08-06T14:57:46;6.82;;;6.05;;
19836;SDS011;10079;55.740;37.662;2023-08-06T15:00:35;6.85;;;6.20;;
19836;SDS011;10079;55.740;37.662;2023-08-06T15:13:57;8.52;;;6.37;;
19836;SDS011;10079;55.740;37.662;2023-08-06T15:16:38;11.40;;;6.68;;
19836;SDS011;10079;55.740;37.662;2023-08-06T15:19:23;6.62;;;5.87;;
19836;SDS011;10079;55.740;37.662;2023-08-06T15:22:12;7.40;;;6.70;;
19836;SDS011;10079;55.740;37.662;2023-08-06T15:25:01;6.87;;;5.55;;
19836;SDS011;10079;55.740;37.662;2023-08-06T15:27:43;5.97;;;5.37;;
19836;SDS011;10079;55.740;37.662;2023-08-06T15:30:23;7.72;;;6.05;;
19836;SDS011;10079;55.740;37.662;2023-08-06T15:33:04;6.47;;;5.60;;
19836;SDS011;10079;55.740;37.662;2023-08-06T15:35:45;6.43;;;5.87;;
19836;SDS011;10079;55.740;37.662;2023-08-06T15:38:26;6.78;;;5.87;;
19836;SDS011;10079;55.740;37.662;2023-08-06T15:41:07;7.05;;;6.22;;
19836;SDS011;10079;55.740;37.662;2023-08-06T15:43:56;8.35;;;6.80;;
19836;SDS011;10079;55.740;37.662;2023-08-06T15:46:46;6.78;;;6.07;;
19836;SDS011;10079;55.740;37.662;2023-08-06T15:49:30;7.40;;;5.75;;
19836;SDS011;10079;55.740;37.662;2023-08-06T16:02:51;7.80;;;6.37;;
19836;SDS011;10079;55.740;37.662;2023-08-06T16:05:31;7.15;;;5.70;;
19836;SDS011;10079;55.740;37.662;2023-08-06T16:08:13;6.53;;;5.93;;
19836;SDS011;10079;55.740;37.662;2023-08-06T16:10:54;9.23;;;6.12;;
19836;SDS011;10079;55.740;37.662;2023-08-06T16:13:34;6.43;;;5.45;;
19836;SDS011;10079;55.740;37.662;2023-08-06T16:16:15;9.60;;;6.20;;
19836;SDS011;10079;55.740;37.662;2023-08-06T16:18:56;7.10;;;6.40;;
19836;SDS011;10079;55.740;37.662;2023-08-06T16:21:36;6.18;;;5.65;;
19836;SDS011;10079;55.740;37.662;2023-08-06T16:24:18;9.80;;;6.07;;
19836;SDS011;10079;55.740;37.662;2023-08-06T16:26:59;10.07;;;6.22;;
19836;SDS011;10079;55.740;37.662;2023-08-06T16:29:39;6.28;;;5.68;;
19836;SDS011;10079;55.740;37.662;2023-08-06T16:32:21;7.40;;;6.32;;
19836;SDS011;10079;55.740;37.662;2023-08-06T16:35:02;7.18;;;6.20;;
19836;SDS011;10079;55.740;37.662;2023-08-06T16:37:45;7.35;;;6.65;;
19836;SDS011;10079;55.740;37.662;2023-08-06T16:40:24;7.55;;;6.55;;
19836;SDS011;10079;55.740;37.662;2023-08-06T16:43:05;6.82;;;6.22;;
19836;SDS011;10079;55.740;37.662;2023-08-06T16:45:46;6.40;;;5.90;;
19836;SDS011;10079;55.740;37.662;2023-08-06T16:48:27;7.57;;;6.20;;
19836;SDS011;10079;55.740;37.662;2023-08-06T16:51:19;7.18;;;6.53;;
19836;SDS011;10079;55.740;37.662;2023-08-06T16:54:00;6.80;;;6.07;;
19836;SDS011;10079;55.740;37.662;2023-08-06T16:56:41;6.60;;;5.80;;
19836;SDS011;10079;55.740;37.662;2023-08-06T16:59:22;7.03;;;5.37;;
19836;SDS011;10079;55.740;37.662;2023-08-06T17:02:03;6.57;;;5.97;;
19836;SDS011;10079;55.740;37.662;2023-08-06T17:04:45;6.53;;;5.55;;
19836;SDS011;10079;55.740;37.662;2023-08-06T17:07:28;6.60;;;5.90;;
19836;SDS011;10079;55.740;37.662;2023-08-06T17:10:12;6.62;;;5.97;;
19836;SDS011;10079;55.740;37.662;2023-08-06T17:12:57;5.60;;;5.12;;
19836;SDS011;10079;55.740;37.662;2023-08-06T17:26:10;7.47;;;5.37;;
19836;SDS011;10079;55.740;37.662;2023-08-06T17:39:27;6.75;;;5.32;;
19836;SDS011;10079;55.740;37.662;2023-08-06T17:42:20;6.50;;;5.90;;
19836;SDS011;10079;55.740;37.662;2023-08-06T17:45:13;6.22;;;5.32;;
19836;SDS011;10079;55.740;37.662;2023-08-06T17:47:53;8.85;;;5.60;;
19836;SDS011;10079;55.740;37.662;2023-08-06T17:50:34;8.50;;;5.50;;
19836;SDS011;10079;55.740;37.662;2023-08-06T17:53:27;7.03;;;5.45;;
19836;SDS011;10079;55.740;37.662;2023-08-06T18:06:51;7.30;;;5.43;;
19836;SDS011;10079;55.740;37.662;2023-08-06T18:09:45;5.95;;;5.18;;
19836;SDS011;10079;55.740;37.662;2023-08-06T18:23:01;7.50;;;5.90;;
19836;SDS011;10079;55.740;37.662;2023-08-06T18:25:42;6.72;;;5.78;;
19836;SDS011;10079;55.740;37.662;2023-08-06T18:28:26;6.60;;;5.55;;
19836;SDS011;10079;55.740;37.662;2023-08-06T18:31:07;6.10;;;5.50;;
19836;SDS011;10079;55.740;37.662;2023-08-06T18:33:47;6.53;;;5.62;;
19836;SDS011;10079;55.740;37.662;2023-08-06T18:36:31;7.80;;;6.40;;
19836;SDS011;10079;55.740;37.662;2023-08-06T18:39:12;6.45;;;5.72;;
19836;SDS011;10079;55.740;37.662;2023-08-06T18:41:53;6.20;;;5.62;;
19836;SDS011;10079;55.740;37.662;2023-08-06T18:44:37;7.55;;;6.18;;
19836;SDS011;10079;55.740;37.662;2023-08-06T18:47:21;7.35;;;5.78;;
19836;SDS011;10079;55.740;37.662;2023-08-06T18:50:02;10.25;;;6.25;;
19836;SDS011;10079;55.740;37.662;2023-08-06T18:52:43;8.65;;;5.95;;
19836;SDS011;10079;55.740;37.662;2023-08-06T18:55:24;7.25;;;6.30;;
19836;SDS011;10079;55.740;37.662;2023-08-06T18:58:05;8.00;;;5.80;;
19836;SDS011;10079;55.740;37.662;2023-08-06T19:00:45;7.82;;;6.20;;
19836;SDS011;10079;55.740;37.662;2023-08-06T19:03:30;8.02;;;6.10;;
19836;SDS011;10079;55.740;37.662;2023-08-06T19:06:22;10.65;;;6.80;;
19836;SDS011;10079;55.740;37.662;2023-08-06T19:09:04;9.45;;;6.68;;
19836;SDS011;10079;55.740;37.662;2023-08-06T19:11:45;7.62;;;6.78;;
19836;SDS011;10079;55.740;37.662;2023-08-06T19:14:25;7.90;;;6.93;;
19836;SDS011;10079;55.740;37.662;2023-08-06T19:17:10;9.98;;;6.62;;
19836;SDS011;10079;55.740;37.662;2023-08-06T19:19:59;9.90;;;6.75;;
19836;SDS011;10079;55.740;37.662;2023-08-06T19:22:48;10.27;;;6.80;;
19836;SDS011;10079;55.740;37.662;2023-08-06T19:25:30;7.75;;;6.72;;
19836;SDS011;10079;55.740;37.662;2023-08-06T19:28:12;7.45;;;6.65;;
19836;SDS011;10079;55.740;37.662;2023-08-06T19:31:05;8.68;;;7.10;;
19836;SDS011;10079;55.740;37.662;2023-08-06T19:33:57;8.38;;;6.68;;
19836;SDS011;10079;55.740;37.662;2023-08-06T19:36:38;7.57;;;6.30;;
19836;SDS011;10079;55.740;37.662;2023-08-06T19:39:20;7.15;;;6.43;;
19836;SDS011;10079;55.740;37.662;2023-08-06T19:42:02;8.07;;;6.53;;
19836;SDS011;10079;55.740;37.662;2023-08-06T19:44:56;9.10;;;6.03;;
19836;SDS011;10079;55.740;37.662;2023-08-06T19:47:37;7.47;;;6.40;;
19836;SDS011;10079;55.740;37.662;2023-08-06T19:50:18;8.48;;;6.05;;
19836;SDS011;10079;55.740;37.662;2023-08-06T19:52:58;9.02;;;5.93;;
19836;SDS011;10079;55.740;37.662;2023-08-06T19:55:49;9.45;;;6.47;;
19836;SDS011;10079;55.740;37.662;2023-08-06T19:58:39;7.65;;;6.30;;
19836;SDS011;10079;55.740;37.662;2023-08-06T20:01:32;8.07;;;6.37;;
19836;SDS011;10079;55.740;37.662;2023-08-06T20:04:23;12.77;;;6.47;;
19836;SDS011;10079;55.740;37.662;2023-08-06T20:07:07;8.30;;;6.90;;
19836;SDS011;10079;55.740;37.662;2023-08-06T20:09:48;7.22;;;6.30;;
19836;SDS011;10079;55.740;37.662;2023-08-06T20:12:28;9.27;;;6.90;;
19836;SDS011;10079;55.740;37.662;2023-08-06T20:15:18;10.35;;;6.43;;
19836;SDS011;10079;55.740;37.662;2023-08-06T20:18:02;8.93;;;7.05;;
19836;SDS011;10079;55.740;37.662;2023-08-06T20:20:46;7.68;;;6.82;;
19836;SDS011;10079;55.740;37.662;2023-08-06T20:23:27;7.78;;;6.97;;
19836;SDS011;10079;55.740;37.662;2023-08-06T20:26:08;8.55;;;6.93;;
19836;SDS011;10079;55.740;37.662;2023-08-06T20:29:00;9.55;;;7.43;;
19836;SDS011;10079;55.740;37.662;2023-08-06T20:31:53;8.63;;;7.35;;
19836;SDS011;10079;55.740;37.662;2023-08-06T20:34:46;8.50;;;7.20;;